Time;durP1;ratioP1;P1;durP2;ratioP2;P2;SDS_P1;SDS_P2;PMS_P1;PMS_P2;Temp;Humidity;BMP_temperature;BMP_pressure;BME280_temperature;BME280_humidity;BME280_pressure;Samples;Min_cycle;Max_cycle;Signal;HPM_P1;HPM_P2
2021/03/15 00:00:04;;;;;;;27.90;13.82;;;231.30;1920.00;;;;;;5110894;28;20051;-70
2021/03/15 00:02:29;;;;;;;21.10;12.02;;;231.30;1920.00;;;;;;5109987;28;20016;-69
2021/03/15 00:04:55;;;;;;;22.23;13.02;;;231.30;1920.00;;;;;;5109558;28;20089;-67
2021/03/15 00:07:21;;;;;;;23.98;13.70;;;231.30;1920.00;;;;;;5110137;28;20062;-64
2021/03/15 00:09:46;;;;;;;24.42;13.55;;;231.30;1920.00;;;;;;5110395;28;20031;-67
2021/03/15 00:12:13;;;;;;;20.50;12.98;;;231.30;1920.00;;;;;;5110699;28;20027;-61
2021/03/15 00:14:39;;;;;;;16.83;10.80;;;256.00;1920.00;;;;;;5107229;28;20036;-66
2021/03/15 00:17:05;;;;;;;15.13;9.82;;;231.30;1920.00;;;;;;5096299;28;20476;-68
2021/03/15 00:19:30;;;;;;;16.15;9.68;;;231.30;1894.40;;;;;;5096263;28;20456;-76
2021/03/15 00:21:56;;;;;;;16.02;9.40;;;231.30;1894.40;;;;;;5096412;28;20496;-80
2021/03/15 00:24:22;;;;;;;13.82;8.88;;;231.30;1920.00;;;;;;5096195;28;20119;-75
2021/03/15 00:26:48;;;;;;;10.95;8.25;;;231.30;1894.40;;;;;;5095747;28;20074;-76
2021/03/15 00:29:13;;;;;;;12.43;8.55;;;231.30;1920.00;;;;;;5096554;28;20053;-63
2021/03/15 00:31:39;;;;;;;13.85;8.25;;;231.30;1894.40;;;;;;5095731;28;20385;-64
2021/03/15 00:34:05;;;;;;;11.55;7.20;;;231.30;1894.40;;;;;;5096113;28;20032;-64
2021/03/15 00:36:30;;;;;;;10.80;7.75;;;231.30;1894.40;;;;;;5095373;28;20461;-71
2021/03/15 00:38:56;;;;;;;11.13;7.75;;;231.30;1894.40;;;;;;5095134;28;20023;-69
2021/03/15 00:41:22;;;;;;;12.38;7.80;;;231.30;1894.40;;;;;;5096062;28;20019;-74
2021/03/15 00:43:47;;;;;;;12.55;7.75;;;231.30;1894.40;;;;;;5095464;28;20047;-69
2021/03/15 00:46:13;;;;;;;9.23;6.78;;;231.30;1894.40;;;;;;5095821;28;20067;-75
2021/03/15 00:48:39;;;;;;;12.07;7.88;;;231.30;1894.40;;;;;;5094452;28;20385;-75
2021/03/15 00:51:05;;;;;;;10.45;7.03;;;231.30;1894.40;;;;;;5096082;28;20085;-75
2021/03/15 00:53:30;;;;;;;12.23;7.10;;;231.30;1894.40;;;;;;5096426;28;20012;-75
2021/03/15 00:55:56;;;;;;;10.43;7.47;;;231.30;1894.40;;;;;;5096116;28;20415;-75
2021/03/15 00:58:22;;;;;;;11.48;7.60;;;231.30;1894.40;;;;;;5096144;28;20419;-74
2021/03/15 01:00:49;;;;;;;12.02;7.28;;;231.30;1894.40;;;;;;5096170;28;20036;-75
2021/03/15 01:03:15;;;;;;;13.32;8.35;;;231.30;1894.40;;;;;;5095923;28;20043;-75
2021/03/15 01:05:46;;;;;;;17.30;9.43;;;231.30;1894.40;;;;;;5095593;28;20103;-75
2021/03/15 01:08:13;;;;;;;17.02;9.50;;;231.30;1894.40;;;;;;5096012;28;20479;-75
2021/03/15 01:10:41;;;;;;;16.20;9.00;;;231.30;1894.40;;;;;;5095783;28;20047;-74
2021/03/15 01:13:08;;;;;;;16.83;8.73;;;231.30;1894.40;;;;;;5095819;28;20492;-75
2021/03/15 01:15:34;;;;;;;12.48;7.95;;;231.20;1894.40;;;;;;5095727;28;20060;-75
2021/03/15 01:18:00;;;;;;;14.80;8.07;;;231.30;1894.40;;;;;;5095780;28;20055;-74
2021/03/15 01:20:26;;;;;;;12.10;7.72;;;231.30;1894.40;;;;;;5095818;28;20028;-71
2021/03/15 01:22:54;;;;;;;13.75;7.90;;;231.20;1894.40;;;;;;5095383;28;20354;-70
2021/03/15 01:25:41;;;;;;;12.13;7.35;;;231.20;1894.40;;;;;;5095478;28;20032;-70
2021/03/15 01:28:10;;;;;;;12.23;7.63;;;231.20;1894.40;;;;;;5094468;28;20111;-70
2021/03/15 01:30:37;;;;;;;12.63;7.38;;;231.20;1868.80;;;;;;5095414;28;20571;-70
2021/03/15 01:33:04;;;;;;;10.18;6.72;;;231.20;1868.80;;;;;;5095107;28;20016;-70
2021/03/15 01:35:30;;;;;;;12.32;7.03;;;231.20;1894.40;;;;;;5095064;28;20020;-70
2021/03/15 01:37:57;;;;;;;12.43;7.05;;;231.20;1894.40;;;;;;5095577;28;20099;-70
2021/03/15 01:40:24;;;;;;;12.23;7.55;;;231.20;1868.80;;;;;;5095355;28;20109;-71
2021/03/15 01:42:50;;;;;;;10.60;7.32;;;231.20;1894.40;;;;;;5095193;28;20028;-71
2021/03/15 01:45:17;;;;;;;11.13;7.55;;;231.10;1894.40;;;;;;5095166;28;20407;-71
2021/03/15 01:47:43;;;;;;;10.65;6.75;;;231.10;1868.80;;;;;;5095253;28;20043;-71
2021/03/15 01:50:12;;;;;;;9.50;6.47;;;231.10;1894.40;;;;;;5094941;28;20020;-71
2021/03/15 01:52:39;;;;;;;9.70;6.03;;;231.10;1868.80;;;;;;5095006;28;20020;-71
2021/03/15 01:55:07;;;;;;;8.77;5.93;;;231.10;1868.80;;;;;;5094922;28;20111;-76
2021/03/15 01:57:34;;;;;;;9.02;6.18;;;231.10;1868.80;;;;;;5095122;28;20457;-74
2021/03/15 02:00:00;;;;;;;7.78;5.57;;;231.10;1868.80;;;;;;5094949;28;20377;-74
2021/03/15 02:02:26;;;;;;;10.30;5.82;;;231.10;1894.40;;;;;;5094658;28;20031;-75
2021/03/15 02:04:53;;;;;;;10.05;6.03;;;231.10;1894.40;;;;;;5094582;28;20457;-75
2021/03/15 02:07:19;;;;;;;10.23;6.10;;;231.10;1868.80;;;;;;5095025;28;20020;-82
2021/03/15 02:09:45;;;;;;;8.52;5.95;;;231.10;1868.80;;;;;;5094807;28;20153;-72
2021/03/15 02:12:22;;;;;;;10.38;5.68;;;231.10;1868.80;;;;;;5094429;28;20023;-73
2021/03/15 02:15:07;;;;;;;9.68;5.82;;;231.10;1868.80;;;;;;5094418;28;20046;-72
2021/03/15 02:17:42;;;;;;;8.67;5.70;;;231.00;1868.80;;;;;;5094789;28;20362;-76
2021/03/15 02:20:16;;;;;;;9.00;5.85;;;231.00;1868.80;;;;;;5094507;28;20276;-76
2021/03/15 02:23:03;;;;;;;13.68;6.07;;;231.00;1894.40;;;;;;5095037;28;20350;-71
2021/03/15 02:26:02;;;;;;;9.73;6.32;;;231.00;1868.80;;;;;;5094485;28;20423;-72
2021/03/15 02:28:46;;;;;;;10.82;6.45;;;231.00;1894.40;;;;;;5094360;28;20039;-68
2021/03/15 02:31:42;;;;;;;8.20;5.93;;;231.00;1894.40;;;;;;5094428;28;20028;-74
2021/03/15 02:34:45;;;;;;;8.57;5.95;;;231.00;1894.40;;;;;;5094376;28;20028;-68
2021/03/15 02:37:12;;;;;;;10.70;5.82;;;231.00;1894.40;;;;;;5094471;28;20107;-75
2021/03/15 02:39:41;;;;;;;13.57;5.90;;;231.00;1894.40;;;;;;5094154;28;20465;-75
2021/03/15 02:42:11;;;;;;;10.40;6.30;;;231.00;1894.40;;;;;;5094378;28;20031;-75
2021/03/15 02:44:38;;;;;;;9.73;5.80;;;230.90;1920.00;;;;;;5093941;28;20064;-78
2021/03/15 02:47:12;;;;;;;10.40;6.50;;;230.90;1894.40;;;;;;5093869;28;20047;-73
2021/03/15 02:49:39;;;;;;;10.23;6.30;;;230.90;1920.00;;;;;;5092927;28;20466;-74
2021/03/15 02:52:07;;;;;;;9.95;5.93;;;230.90;1920.00;;;;;;5093689;28;20473;-72
2021/03/15 02:54:35;;;;;;;9.18;6.10;;;230.90;1894.40;;;;;;5094012;28;20026;-72
2021/03/15 02:57:02;;;;;;;11.80;5.93;;;230.90;1920.00;;;;;;5093815;28;20028;-72
2021/03/15 02:59:29;;;;;;;11.18;6.65;;;230.90;1920.00;;;;;;5093774;28;20104;-70
2021/03/15 03:01:56;;;;;;;11.13;5.63;;;230.90;1920.00;;;;;;5093895;28;20024;-71
2021/03/15 03:04:22;;;;;;;11.13;5.65;;;230.90;1920.00;;;;;;5093628;28;20044;-72
2021/03/15 03:06:52;;;;;;;9.38;6.13;;;230.90;1920.00;;;;;;5093970;28;20030;-72
2021/03/15 03:09:18;;;;;;;8.88;5.97;;;230.90;1894.40;;;;;;5093814;28;20027;-72
2021/03/15 03:11:47;;;;;;;9.40;6.00;;;230.90;1920.00;;;;;;5093880;28;20146;-68
2021/03/15 03:14:14;;;;;;;12.13;6.22;;;230.80;1920.00;;;;;;5093225;28;20094;-73
2021/03/15 03:16:41;;;;;;;9.60;6.03;;;230.80;1920.00;;;;;;5093863;28;20044;-73
2021/03/15 03:19:14;;;;;;;9.68;5.57;;;230.80;1920.00;;;;;;5093482;28;20481;-72
2021/03/15 03:21:41;;;;;;;11.30;6.15;;;230.80;1920.00;;;;;;5093538;28;20035;-72
2021/03/15 03:24:08;;;;;;;11.48;6.30;;;230.70;1920.00;;;;;;5093632;28;20374;-72
2021/03/15 03:26:36;;;;;;;10.52;5.30;;;230.70;1920.00;;;;;;5093779;28;20028;-72
2021/03/15 03:29:03;;;;;;;9.40;5.57;;;230.70;1920.00;;;;;;5094044;28;20020;-72
2021/03/15 03:31:32;;;;;;;11.77;5.65;;;230.70;1920.00;;;;;;5093682;28;20028;-72
2021/03/15 03:34:02;;;;;;;11.48;5.57;;;230.70;1920.00;;;;;;5093455;28;20094;-71
2021/03/15 03:36:28;;;;;;;10.82;5.63;;;230.70;1920.00;;;;;;5093709;28;20380;-69
2021/03/15 03:38:54;;;;;;;10.45;5.90;;;230.70;1920.00;;;;;;5093600;28;20031;-67
2021/03/15 03:41:21;;;;;;;9.85;5.78;;;230.60;1920.00;;;;;;5093683;28;20025;-69
2021/03/15 03:43:47;;;;;;;7.93;5.00;;;230.60;1920.00;;;;;;5093350;28;20020;-66
2021/03/15 03:46:14;;;;;;;9.82;5.25;;;230.60;1920.00;;;;;;5093416;28;20026;-62
2021/03/15 03:48:41;;;;;;;8.20;4.82;;;230.60;1920.00;;;;;;5093411;28;20024;-71
2021/03/15 03:51:08;;;;;;;10.52;5.60;;;230.60;1945.60;;;;;;5094651;28;20477;-70
2021/03/15 03:53:40;;;;;;;8.55;5.03;;;230.60;1945.60;;;;;;5095450;28;20056;-70
2021/03/15 03:56:08;;;;;;;9.57;5.47;;;230.50;1945.60;;;;;;5097292;28;20031;-71
2021/03/15 03:58:42;;;;;;;10.40;5.32;;;230.50;1945.60;;;;;;5097059;28;20030;-73
2021/03/15 04:01:10;;;;;;;9.45;5.25;;;230.50;1945.60;;;;;;5097168;28;20034;-71
2021/03/15 04:03:37;;;;;;;9.65;5.82;;;230.50;1945.60;;;;;;5096925;28;20074;-72
2021/03/15 04:06:10;;;;;;;10.25;5.47;;;230.40;1945.60;;;;;;5096828;28;20085;-73
2021/03/15 04:08:55;;;;;;;10.05;5.47;;;230.50;1945.60;;;;;;5096835;28;20479;-75
2021/03/15 04:11:24;;;;;;;7.37;5.53;;;230.50;1971.20;;;;;;5097036;28;20020;-70
2021/03/15 04:13:54;;;;;;;9.27;5.05;;;230.40;1971.20;;;;;;5097013;28;20249;-72
2021/03/15 04:16:26;;;;;;;9.40;5.28;;;230.40;1971.20;;;;;;5096844;28;20089;-74
2021/03/15 04:18:54;;;;;;;8.60;4.90;;;230.40;1971.20;;;;;;5096761;28;20103;-69
2021/03/15 04:21:24;;;;;;;6.75;4.45;;;230.40;1971.20;;;;;;5096866;28;20373;-75
2021/03/15 04:23:52;;;;;;;13.70;5.93;;;230.40;1971.20;;;;;;5096800;28;20020;-75
2021/03/15 04:26:18;;;;;;;7.43;5.10;;;230.40;1971.20;;;;;;5096965;28;20028;-69
2021/03/15 04:28:46;;;;;;;11.73;5.70;;;230.40;1971.20;;;;;;5096574;28;20073;-76
2021/03/15 04:31:12;;;;;;;9.93;5.35;;;205.70;1971.20;;;;;;5096394;28;20473;-63
2021/03/15 04:33:40;;;;;;;10.38;5.78;;;205.70;1971.20;;;;;;5096299;28;20146;-74
2021/03/15 04:36:07;;;;;;;8.63;4.88;;;205.70;1971.20;;;;;;5096782;28;20054;-75
2021/03/15 04:38:35;;;;;;;11.07;5.65;;;205.70;1971.20;;;;;;5096506;28;20020;-69
2021/03/15 04:41:02;;;;;;;10.98;6.10;;;205.70;1971.20;;;;;;5096361;28;20028;-75
2021/03/15 04:43:28;;;;;;;10.23;5.97;;;205.70;1971.20;;;;;;5096091;28;20043;-72
2021/03/15 04:45:55;;;;;;;9.50;5.60;;;205.70;1971.20;;;;;;5096191;28;20039;-67
2021/03/15 04:48:27;;;;;;;9.20;5.18;;;205.70;1971.20;;;;;;5096262;28;20522;-75
2021/03/15 04:51:01;;;;;;;8.25;5.07;;;205.60;1971.20;;;;;;5096315;28;20096;-66
2021/03/15 04:53:28;;;;;;;8.50;5.40;;;205.60;1971.20;;;;;;5095969;28;20030;-74
2021/03/15 04:56:03;;;;;;;17.88;6.65;;;205.60;1996.80;;;;;;5096096;28;20461;-68
2021/03/15 04:58:30;;;;;;;;;;;205.60;1971.20;;;;;;5096366;28;20031;-75
2021/03/15 05:01:00;;;;;;;9.80;5.20;;;205.60;1996.80;;;;;;5096443;28;19904;-74
2021/03/15 05:03:27;;;;;;;7.50;5.32;;;205.60;1996.80;;;;;;5095881;28;20407;-66
2021/03/15 05:05:54;;;;;;;6.68;5.07;;;205.60;1996.80;;;;;;5096049;28;20085;-65
2021/03/15 05:08:24;;;;;;;10.73;6.03;;;205.60;1996.80;;;;;;5096078;28;20047;-62
2021/03/15 05:10:51;;;;;;;10.80;5.85;;;205.60;1996.80;;;;;;5095960;28;20510;-61
2021/03/15 05:13:18;;;;;;;12.93;6.22;;;205.60;1996.80;;;;;;5095762;28;20103;-62
2021/03/15 05:15:45;;;;;;;8.88;6.15;;;205.60;1996.80;;;;;;5096080;28;20024;-71
2021/03/15 05:18:14;;;;;;;14.68;6.93;;;205.60;1996.80;;;;;;5096167;28;20076;-60
2021/03/15 05:20:41;;;;;;;14.07;8.20;;;205.60;2048.00;;;;;;5095716;28;20024;-61
2021/03/15 05:23:11;;;;;;;16.98;9.32;;;205.60;2022.40;;;;;;5095706;28;20024;-77
2021/03/15 05:25:39;;;;;;;18.15;12.77;;;205.60;2022.40;;;;;;5095643;28;20040;-60
2021/03/15 05:28:07;;;;;;;28.83;17.08;;;205.60;2022.40;;;;;;5095711;28;20065;-60
2021/03/15 05:30:36;;;;;;;25.92;18.10;;;205.60;2022.40;;;;;;5095612;28;20107;-60
2021/03/15 05:33:05;;;;;;;25.88;18.65;;;205.60;2022.40;;;;;;5095363;28;20036;-78
2021/03/15 05:35:31;;;;;;;36.80;22.88;;;205.60;2022.40;;;;;;5095811;28;20408;-60
2021/03/15 05:37:59;;;;;;;35.88;25.70;;;205.60;2022.40;;;;;;5095164;28;20034;-60
2021/03/15 05:40:25;;;;;;;33.40;23.10;;;205.60;2022.40;;;;;;5095304;28;20020;-60
2021/03/15 05:43:15;;;;;;;28.10;18.50;;;205.60;2022.40;;;;;;5094677;28;20086;-60
2021/03/15 05:45:52;;;;;;;28.23;18.88;;;205.60;2022.40;;;;;;5095216;28;20032;-60
2021/03/15 05:48:41;;;;;;;30.55;18.67;;;205.60;2022.40;;;;;;5095048;28;20056;-78
2021/03/15 05:51:27;;;;;;;27.48;19.80;;;205.60;2022.40;;;;;;5095187;28;20036;-60
2021/03/15 05:54:08;;;;;;;24.42;17.88;;;205.60;2022.40;;;;;;5095154;28;20020;-59
2021/03/15 05:56:52;;;;;;;30.08;20.85;;;205.60;2022.40;;;;;;5095035;28;20162;-60
2021/03/15 05:59:38;;;;;;;27.47;16.43;;;205.60;2022.40;;;;;;5094893;28;20031;-59
2021/03/15 06:02:35;;;;;;;24.90;17.20;;;205.60;1996.80;;;;;;5094855;28;20028;-60
2021/03/15 06:05:19;;;;;;;23.40;18.17;;;205.60;1996.80;;;;;;5094571;28;20048;-60
2021/03/15 06:08:10;;;;;;;24.70;17.88;;;205.60;1996.80;;;;;;5094734;28;20537;-60
2021/03/15 06:10:36;;;;;;;29.05;18.35;;;205.50;1971.20;;;;;;5032371;28;20490;-64
2021/03/15 06:13:02;;;;;;;22.55;16.63;;;205.50;1971.20;;;;;;5032294;28;20033;-60
2021/03/15 06:15:38;;;;;;;20.98;15.13;;;205.40;1945.60;;;;;;5032099;28;20041;-78
2021/03/15 06:18:05;;;;;;;24.30;15.00;;;205.40;1945.60;;;;;;5032414;28;20040;-63
2021/03/15 06:20:35;;;;;;;18.77;13.40;;;205.40;1945.60;;;;;;5032626;28;20147;-78
2021/03/15 06:23:02;;;;;;;23.67;14.48;;;205.30;1945.60;;;;;;5032810;28;20041;-61
2021/03/15 06:25:28;;;;;;;20.27;14.32;;;205.30;1945.60;;;;;;5032118;28;20037;-73
2021/03/15 06:27:55;;;;;;;24.30;16.80;;;205.30;1945.60;;;;;;5032270;28;20049;-62
2021/03/15 06:30:22;;;;;;;25.10;18.92;;;205.30;1945.60;;;;;;5032300;28;20095;-61
2021/03/15 06:32:59;;;;;;;25.02;17.38;;;205.20;1945.60;;;;;;5032138;28;20082;-60
2021/03/15 06:35:30;;;;;;;22.13;15.57;;;205.20;1971.20;;;;;;5031954;28;20071;-64
2021/03/15 06:37:56;;;;;;;28.98;19.42;;;205.20;1971.20;;;;;;5032041;28;20416;-60
2021/03/15 06:40:23;;;;;;;35.00;20.30;;;205.20;1945.60;;;;;;5032047;28;20040;-61
2021/03/15 06:42:53;;;;;;;30.10;19.15;;;205.10;1945.60;;;;;;5032199;28;20037;-61
2021/03/15 06:45:20;;;;;;;34.67;21.70;;;205.10;1945.60;;;;;;5031939;28;20538;-78
2021/03/15 06:47:48;;;;;;;27.13;18.65;;;205.10;1945.60;;;;;;5064670;28;20032;-78
2021/03/15 06:50:17;;;;;;;20.55;14.52;;;205.10;1945.60;;;;;;5093998;28;20044;-77
2021/03/15 06:53:03;;;;;;;23.13;15.85;;;205.10;1945.60;;;;;;5094153;28;20024;-78
2021/03/15 06:55:30;;;;;;;20.40;15.18;;;205.10;1945.60;;;;;;5093912;28;20074;-61
2021/03/15 06:57:56;;;;;;;18.23;12.85;;;205.10;1945.60;;;;;;5092797;28;20485;-60
2021/03/15 07:00:31;;;;;;;19.20;13.90;;;205.00;1945.60;;;;;;5093715;28;20032;-78
2021/03/15 07:03:02;;;;;;;19.00;14.48;;;205.00;1945.60;;;;;;5093952;28;20024;-60
2021/03/15 07:05:32;;;;;;;16.33;11.93;;;205.00;1945.60;;;;;;5093671;28;20056;-74
2021/03/15 07:08:00;;;;;;;17.02;12.57;;;205.00;1945.60;;;;;;5093859;28;20028;-71
2021/03/15 07:10:27;;;;;;;16.25;11.35;;;205.00;1971.20;;;;;;5094201;28;20086;-78
2021/03/15 07:13:14;;;;;;;16.70;10.23;;;205.00;1971.20;;;;;;5094027;28;20069;-78
2021/03/15 07:15:44;;;;;;;12.60;9.50;;;205.00;1971.20;;;;;;5093685;28;20054;-60
2021/03/15 07:18:18;;;;;;;16.30;10.40;;;204.90;1971.20;;;;;;5093963;28;20020;-61
2021/03/15 07:20:56;;;;;;;17.05;10.00;;;205.00;1971.20;;;;;;5093860;28;20059;-61
2021/03/15 07:23:41;;;;;;;16.40;11.23;;;204.90;1971.20;;;;;;5093962;28;20055;-60
2021/03/15 07:26:11;;;;;;;;;;;204.90;1971.20;;;;;;5095653;28;20103;-61
2021/03/15 07:28:36;;;;;;;18.48;11.35;;;204.90;1971.20;;;;;;5098206;28;19907;-64
2021/03/15 07:31:20;;;;;;;18.10;12.40;;;204.90;1971.20;;;;;;5098021;28;20042;-60
2021/03/15 07:33:47;;;;;;;20.23;12.63;;;204.90;1971.20;;;;;;5098324;28;20330;-60
2021/03/15 07:36:13;;;;;;;23.15;13.77;;;204.90;1971.20;;;;;;5095896;28;20269;-60
2021/03/15 07:38:39;;;;;;;20.48;12.95;;;204.90;1971.20;;;;;;5097670;28;20032;-60
2021/03/15 07:41:19;;;;;;;21.52;13.02;;;204.90;1971.20;;;;;;5097673;28;20020;-77
2021/03/15 07:43:45;;;;;;;21.00;13.15;;;204.90;1971.20;;;;;;5097621;28;20031;-77
2021/03/15 07:46:27;;;;;;;21.85;13.43;;;204.90;1971.20;;;;;;5097609;28;20035;-78
2021/03/15 07:48:54;;;;;;;15.52;11.20;;;204.90;1971.20;;;;;;5097692;28;20024;-61
2021/03/15 07:51:32;;;;;;;17.85;11.85;;;204.90;1971.20;;;;;;5097342;28;20104;-64
2021/03/15 07:54:07;;;;;;;16.50;12.07;;;204.90;1971.20;;;;;;5097372;28;20027;-60
2021/03/15 07:56:33;;;;;;;20.27;12.02;;;204.90;1971.20;;;;;;5097490;28;20381;-61
2021/03/15 07:58:59;;;;;;;16.40;12.73;;;204.90;1971.20;;;;;;5097177;28;20058;-78
2021/03/15 08:01:25;;;;;;;20.63;13.93;;;204.90;1971.20;;;;;;5097378;28;20099;-77
2021/03/15 08:03:52;;;;;;;17.00;13.00;;;204.90;1971.20;;;;;;5096994;28;20052;-76
2021/03/15 08:06:18;;;;;;;17.27;11.77;;;205.00;1971.20;;;;;;5097123;28;20037;-78
2021/03/15 08:08:44;;;;;;;17.48;10.48;;;205.00;1996.80;;;;;;5097314;28;20106;-61
2021/03/15 08:11:16;;;;;;;14.68;10.77;;;204.90;1971.20;;;;;;5097260;28;20099;-60
2021/03/15 08:13:48;;;;;;;14.15;10.30;;;205.00;1996.80;;;;;;5097182;28;20093;-78
2021/03/15 08:16:19;;;;;;;14.48;10.43;;;205.00;1996.80;;;;;;5097177;28;20024;-60
2021/03/15 08:18:48;;;;;;;19.70;9.73;;;205.00;1971.20;;;;;;5097086;28;20411;-61
2021/03/15 08:21:25;;;;;;;18.58;12.55;;;205.10;1971.20;;;;;;5096769;28;20111;-61
2021/03/15 08:23:52;;;;;;;17.58;12.27;;;205.10;1971.20;;;;;;5096198;28;20016;-70
2021/03/15 08:26:19;;;;;;;21.13;13.15;;;205.20;1996.80;;;;;;5094252;28;20032;-66
2021/03/15 08:28:47;;;;;;;18.80;12.88;;;205.20;1971.20;;;;;;5096335;28;20024;-75
2021/03/15 08:31:37;;;;;;;22.23;12.80;;;205.40;1996.80;;;;;;5096510;28;20023;-60
2021/03/15 08:34:04;;;;;;;20.13;13.48;;;205.30;1996.80;;;;;;5096574;28;20043;-60
2021/03/15 08:36:44;;;;;;;23.38;14.95;;;205.30;1996.80;;;;;;5096040;28;20408;-60
2021/03/15 08:39:31;;;;;;;21.58;13.20;;;205.30;1971.20;;;;;;5096560;28;20036;-61
2021/03/15 08:42:06;;;;;;;21.35;13.20;;;205.40;1971.20;;;;;;5096322;28;20484;-60
2021/03/15 08:44:46;;;;;;;21.45;13.18;;;205.40;1971.20;;;;;;5095540;28;20493;-61
2021/03/15 08:47:13;;;;;;;13.65;9.95;;;205.40;1971.20;;;;;;5095549;28;20032;-62
2021/03/15 08:49:42;;;;;;;13.32;9.55;;;205.40;1971.20;;;;;;5096049;28;20032;-67
2021/03/15 08:52:34;;;;;;;17.50;10.70;;;205.50;1971.20;;;;;;5096171;28;20032;-62
2021/03/15 08:55:00;;;;;;;19.92;10.65;;;205.50;1971.20;;;;;;5096207;28;20024;-78
2021/03/15 08:57:34;;;;;;;23.67;10.55;;;205.50;1971.20;;;;;;5096286;28;20021;-65
2021/03/15 09:00:21;;;;;;;21.48;10.07;;;205.60;1945.60;;;;;;5095914;28;20028;-61
2021/03/15 09:02:48;;;;;;;23.48;10.85;;;205.60;1945.60;;;;;;5095216;28;20039;-69
2021/03/15 09:05:23;;;;;;;18.58;9.73;;;205.60;1945.60;;;;;;5094561;28;20063;-78
2021/03/15 09:07:50;;;;;;;23.38;11.13;;;205.60;1971.20;;;;;;5092788;28;20542;-78
2021/03/15 09:10:25;;;;;;;39.08;20.15;;;205.60;1945.60;;;;;;5095720;28;20024;-77
2021/03/15 09:13:10;;;;;;;32.85;25.02;;;205.70;1971.20;;;;;;5093553;28;20549;-78
2021/03/15 09:15:40;;;;;;;27.48;19.60;;;205.70;1971.20;;;;;;5094983;28;20103;-67
2021/03/15 09:18:48;;;;;;;23.23;14.38;;;230.40;1945.60;;;;;;5091638;28;20111;-63
2021/03/15 09:21:23;;;;;;;21.65;14.25;;;205.70;1945.60;;;;;;5093666;28;20103;-61
2021/03/15 09:23:48;;;;;;;21.48;13.40;;;205.70;1920.00;;;;;;5094121;28;20028;-61
2021/03/15 09:26:29;;;;;;;19.85;12.55;;;230.40;1920.00;;;;;;5092962;28;20103;-65
2021/03/15 09:28:57;;;;;;;15.68;10.10;;;205.70;1920.00;;;;;;5094367;28;20055;-62
2021/03/15 09:31:23;;;;;;;18.98;13.15;;;205.60;1920.00;;;;;;5092383;28;20056;-64
2021/03/15 09:33:49;;;;;;;15.73;10.93;;;205.60;1920.00;;;;;;5093342;28;20465;-61
2021/03/15 09:36:28;;;;;;;15.95;11.93;;;205.60;1920.00;;;;;;5089243;28;20032;-65
2021/03/15 09:38:58;;;;;;;17.38;11.45;;;205.60;1920.00;;;;;;5089128;28;20089;-64
2021/03/15 09:41:24;;;;;;;19.45;14.88;;;205.60;1920.00;;;;;;5094453;28;20032;-67
2021/03/15 09:43:52;;;;;;;16.75;12.00;;;205.60;1920.00;;;;;;5093670;28;20036;-64
2021/03/15 09:46:29;;;;;;;21.13;13.43;;;205.60;1920.00;;;;;;5092135;28;20028;-65
2021/03/15 09:48:55;;;;;;;28.08;16.63;;;205.60;1894.40;;;;;;5084579;28;20028;-62
2021/03/15 09:51:27;;;;;;;25.35;15.80;;;205.60;1894.40;;;;;;5090845;28;20412;-76
2021/03/15 09:53:54;;;;;;;34.35;19.77;;;205.60;1894.40;;;;;;5092033;28;20038;-76
2021/03/15 09:56:22;;;;;;;31.52;18.33;;;205.60;1894.40;;;;;;5089489;28;20036;-65
2021/03/15 09:58:48;;;;;;;31.15;16.48;;;205.60;1894.40;;;;;;5093658;28;20039;-62
2021/03/15 10:01:16;;;;;;;22.83;15.20;;;205.60;1894.40;;;;;;5094155;28;20032;-61
2021/03/15 10:03:52;;;;;;;28.58;17.33;;;205.60;1894.40;;;;;;5093386;28;20457;-72
2021/03/15 10:06:25;;;;;;;24.67;16.30;;;205.70;1894.40;;;;;;5093435;28;20032;-61
2021/03/15 10:08:53;;;;;;;28.27;17.20;;;205.70;1894.40;;;;;;5093826;28;20377;-68
2021/03/15 10:11:20;;;;;;;30.88;19.13;;;205.70;1894.40;;;;;;5093299;28;20030;-62
2021/03/15 10:14:02;;;;;;;29.60;18.35;;;205.70;1894.40;;;;;;5093704;28;20054;-62
2021/03/15 10:16:28;;;;;;;24.10;15.23;;;230.40;1894.40;;;;;;5093884;28;20472;-61
2021/03/15 10:18:54;;;;;;;22.75;13.63;;;230.40;1894.40;;;;;;5092784;28;20024;-74
2021/03/15 10:21:30;;;;;;;18.15;12.07;;;230.40;1894.40;;;;;;5093298;28;20488;-76
2021/03/15 10:23:56;;;;;;;24.08;16.48;;;230.40;1894.40;;;;;;5092920;28;20012;-61
2021/03/15 10:26:21;;;;;;;21.65;13.63;;;230.50;1894.40;;;;;;5093681;28;20032;-61
2021/03/15 10:28:49;;;;;;;18.85;12.45;;;230.50;1920.00;;;;;;5093312;28;20048;-63
2021/03/15 10:31:17;;;;;;;20.27;11.55;;;230.50;1920.00;;;;;;5092970;28;20024;-76
2021/03/15 10:33:46;;;;;;;22.33;12.68;;;230.60;1894.40;;;;;;5093014;28;20032;-76
2021/03/15 10:36:20;;;;;;;24.27;14.35;;;230.60;1894.40;;;;;;5092789;28;20028;-77
2021/03/15 10:38:47;;;;;;;23.35;17.13;;;230.60;1894.40;;;;;;5091337;28;20439;-77
2021/03/15 10:41:13;;;;;;;39.47;21.00;;;230.70;1894.40;;;;;;5093278;28;20028;-65
2021/03/15 10:43:43;;;;;;;34.97;21.42;;;230.70;1920.00;;;;;;5093943;28;20024;-63
2021/03/15 10:46:21;;;;;;;41.47;23.20;;;230.70;1894.40;;;;;;5094261;28;20359;-62
2021/03/15 10:48:47;;;;;;;34.38;20.35;;;230.70;1920.00;;;;;;5094293;28;20032;-71
2021/03/15 10:51:13;;;;;;;37.95;20.30;;;230.70;1894.40;;;;;;5093012;28;20409;-61
2021/03/15 10:53:53;;;;;;;35.70;19.77;;;230.70;1894.40;;;;;;5090488;28;20462;-67
2021/03/15 10:56:20;;;;;;;33.03;19.90;;;230.80;1894.40;;;;;;5093291;28;20024;-65
2021/03/15 10:58:47;;;;;;;21.38;15.10;;;230.80;1920.00;;;;;;5092025;28;20028;-63
2021/03/15 11:01:20;;;;;;;21.15;14.57;;;230.80;1894.40;;;;;;5085945;28;20427;-61
2021/03/15 11:03:46;;;;;;;24.08;15.00;;;230.80;1894.40;;;;;;5086964;28;20040;-61
2021/03/15 11:06:15;;;;;;;28.38;16.02;;;230.80;1894.40;;;;;;5035164;27;20058;-64
2021/03/15 11:08:42;;;;;;;35.88;18.60;;;230.80;1894.40;;;;;;5033111;28;20029;-75
2021/03/15 11:11:22;;;;;;;39.50;21.77;;;230.80;1894.40;;;;;;5031901;28;20056;-76
2021/03/15 11:13:50;;;;;;;40.53;22.98;;;230.80;1894.40;;;;;;5032651;28;20407;-75
2021/03/15 11:16:20;;;;;;;33.70;20.90;;;230.80;1894.40;;;;;;5032124;28;20021;-67
2021/03/15 11:18:47;;;;;;;34.60;22.38;;;230.80;1894.40;;;;;;5032508;28;20026;-75
2021/03/15 11:21:13;;;;;;;33.30;21.35;;;230.90;1868.80;;;;;;5032337;28;20029;-71
2021/03/15 11:23:41;;;;;;;32.42;18.95;;;230.90;1894.40;;;;;;5033032;28;20460;-75
2021/03/15 11:26:16;;;;;;;20.83;13.57;;;230.90;1868.80;;;;;;5031981;28;20072;-68
2021/03/15 11:28:50;;;;;;;19.65;11.40;;;230.80;1843.20;;;;;;5031609;28;20435;-61
2021/03/15 11:31:24;;;;;;;22.30;11.20;;;230.80;1817.60;;;;;;5025209;28;20021;-76
2021/03/15 11:34:02;;;;;;;17.15;11.43;;;230.90;1817.60;;;;;;5031125;28;20026;-62
2021/03/15 11:36:31;;;;;;;17.45;11.15;;;230.80;1817.60;;;;;;5031176;28;20024;-71
2021/03/15 11:39:04;;;;;;;17.65;10.85;;;230.80;1792.00;;;;;;5030753;28;20066;-65
2021/03/15 11:41:32;;;;;;;15.73;9.95;;;230.80;1817.60;;;;;;5032208;28;20053;-61
2021/03/15 11:44:00;;;;;;;16.13;10.38;;;230.80;1792.00;;;;;;5032247;28;20425;-64
2021/03/15 11:46:26;;;;;;;21.88;12.65;;;230.80;1817.60;;;;;;5031772;28;20025;-74
2021/03/15 11:48:52;;;;;;;17.55;12.15;;;230.80;1792.00;;;;;;5032368;28;20037;-68
2021/03/15 11:51:20;;;;;;;31.88;20.17;;;230.80;1817.60;;;;;;5032053;28;20026;-67
2021/03/15 11:53:46;;;;;;;31.33;19.13;;;230.80;1792.00;;;;;;5031544;28;20032;-69
2021/03/15 11:56:13;;;;;;;22.33;14.55;;;230.80;1792.00;;;;;;5032101;28;20030;-71
2021/03/15 11:58:39;;;;;;;19.00;12.88;;;230.80;1792.00;;;;;;5032257;28;20075;-74
2021/03/15 12:01:05;;;;;;;22.63;15.35;;;230.80;1792.00;;;;;;5031644;28;20033;-73
2021/03/15 12:03:31;;;;;;;18.55;13.50;;;230.80;1817.60;;;;;;5032041;28;20031;-69
2021/03/15 12:05:57;;;;;;;19.15;13.30;;;230.80;1817.60;;;;;;5032099;28;20030;-75
2021/03/15 12:08:24;;;;;;;20.25;13.40;;;230.80;1817.60;;;;;;5028650;28;20018;-75
2021/03/15 12:10:49;;;;;;;22.85;12.73;;;230.80;1792.00;;;;;;5032215;28;20068;-73
2021/03/15 12:13:15;;;;;;;17.75;11.40;;;230.80;1792.00;;;;;;5034551;28;20483;-71
2021/03/15 12:15:41;;;;;;;15.95;10.23;;;230.80;1792.00;;;;;;5035269;28;20033;-71
2021/03/15 12:18:08;;;;;;;18.27;11.90;;;230.80;1792.00;;;;;;5032292;28;20025;-61
2021/03/15 12:20:35;;;;;;;12.90;10.65;;;230.80;1792.00;;;;;;5035626;28;20029;-62